createdAt,value
2022-08-11T00:00:17.306Z,16.70
2022-08-11T00:02:52.973Z,16.70
2022-08-11T00:05:24.890Z,16.60
2022-08-11T00:07:58.545Z,16.60
2022-08-11T00:10:30.655Z,16.60
2022-08-11T00:13:07.530Z,16.60
2022-08-11T00:15:42.940Z,16.60
2022-08-11T00:18:15.704Z,16.60
2022-08-11T00:20:48.227Z,16.60
2022-08-11T00:23:20.707Z,16.60
2022-08-11T00:25:53.393Z,16.50
2022-08-11T00:28:33.921Z,16.60
2022-08-11T00:31:08.584Z,16.50
2022-08-11T00:33:45.188Z,16.50
2022-08-11T00:36:25.369Z,16.50
2022-08-11T00:39:05.288Z,16.50
2022-08-11T00:41:37.197Z,16.50
2022-08-11T00:44:27.550Z,16.40
2022-08-11T00:47:31.588Z,16.40
2022-08-11T00:50:09.298Z,16.40
2022-08-11T00:53:03.292Z,16.40
2022-08-11T00:56:12.373Z,16.40
2022-08-11T00:59:32.212Z,16.30
2022-08-11T01:02:30.675Z,16.30
2022-08-11T01:05:14.972Z,16.30
2022-08-11T01:08:05.503Z,16.30
2022-08-11T01:11:15.135Z,16.20
2022-08-11T01:14:34.246Z,16.20
2022-08-11T01:17:51.153Z,16.20
2022-08-11T01:20:45.045Z,16.20
2022-08-11T01:23:41.711Z,16.10
2022-08-11T01:26:43.912Z,16.20
2022-08-11T01:29:24.468Z,16.20
2022-08-11T01:32:29.694Z,16.10
2022-08-11T01:35:07.459Z,16.10
2022-08-11T01:38:06.841Z,16.10
2022-08-11T01:40:55.566Z,16.10
2022-08-11T01:44:22.484Z,16.00
2022-08-11T01:47:06.703Z,16.00
2022-08-11T01:50:08.646Z,15.90
2022-08-11T01:53:20.590Z,15.90
2022-08-11T01:56:27.277Z,15.80
2022-08-11T01:59:34.332Z,15.80
2022-08-11T02:02:06.026Z,15.80
2022-08-11T02:04:44.042Z,15.80
2022-08-11T02:07:47.096Z,15.80
2022-08-11T02:10:50.770Z,15.80
2022-08-11T02:13:53.883Z,15.70
2022-08-11T02:16:37.686Z,15.70
2022-08-11T02:19:56.609Z,15.70
2022-08-11T02:24:00.527Z,15.70
2022-08-11T02:26:33.167Z,15.70
2022-08-11T02:29:25.180Z,15.70
2022-08-11T02:32:30.727Z,15.70
2022-08-11T02:35:29.307Z,15.60
2022-08-11T02:38:25.400Z,15.60
2022-08-11T02:41:30.537Z,15.50
2022-08-11T02:44:25.975Z,15.50
2022-08-11T02:47:00.415Z,15.50
2022-08-11T02:49:59.750Z,15.50
2022-08-11T02:52:54.158Z,15.40
2022-08-11T02:56:10.878Z,15.40
2022-08-11T02:59:27.353Z,15.40
2022-08-11T03:02:10.039Z,15.40
2022-08-11T03:04:55.812Z,15.40
2022-08-11T03:07:52.783Z,15.40
2022-08-11T03:11:21.095Z,15.40
2022-08-11T03:14:26.329Z,15.30
2022-08-11T03:17:30.062Z,15.30
2022-08-11T03:20:13.759Z,15.30
2022-08-11T03:22:51.600Z,15.20
2022-08-11T03:25:44.991Z,15.20
2022-08-11T03:28:36.735Z,15.20
2022-08-11T03:31:20.055Z,15.30
2022-08-11T03:34:06.611Z,15.20
2022-08-11T03:37:16.806Z,15.20
2022-08-11T03:40:01.681Z,15.20
2022-08-11T03:42:57.850Z,15.20
2022-08-11T03:45:57.342Z,15.20
2022-08-11T03:49:05.711Z,15.20
2022-08-11T03:52:05.359Z,15.20
2022-08-11T03:55:07.467Z,15.10
2022-08-11T03:57:47.942Z,15.10
2022-08-11T04:00:39.934Z,15.10
2022-08-11T04:03:39.250Z,15.10
2022-08-11T04:06:38.866Z,15.10
2022-08-11T04:09:56.998Z,15.10
2022-08-11T04:12:39.468Z,15.10
2022-08-11T04:15:49.254Z,15.10
2022-08-11T04:18:39.268Z,15.10
2022-08-11T04:21:20.329Z,15.10
2022-08-11T04:24:39.079Z,15.10
2022-08-11T04:27:47.717Z,15.10
2022-08-11T04:30:54.108Z,15.10
2022-08-11T04:33:55.413Z,15.00
2022-08-11T04:37:06.425Z,15.00
2022-08-11T04:40:13.237Z,15.10
2022-08-11T04:43:22.071Z,15.10
2022-08-11T04:45:56.756Z,15.10
2022-08-11T04:49:33.709Z,15.10
2022-08-11T04:52:38.300Z,15.20
2022-08-11T04:56:00.423Z,15.20
2022-08-11T04:59:25.050Z,15.30
2022-08-11T05:02:30.331Z,15.30
2022-08-11T05:05:20.572Z,15.40
2022-08-11T05:08:24.184Z,15.40
2022-08-11T05:11:22.730Z,15.50
2022-08-11T05:14:31.432Z,15.50
2022-08-11T05:17:40.730Z,15.50
2022-08-11T05:20:31.762Z,15.60
2022-08-11T05:23:25.197Z,15.60
2022-08-11T05:26:46.877Z,15.70
2022-08-11T05:29:57.403Z,15.70
2022-08-11T05:33:14.458Z,15.80
2022-08-11T05:36:02.576Z,16.00
2022-08-11T05:38:55.584Z,16.00
2022-08-11T05:41:49.540Z,16.10
2022-08-11T05:44:40.482Z,16.20
2022-08-11T05:47:39.456Z,16.30
2022-08-11T05:50:33.123Z,16.40
2022-08-11T05:53:29.408Z,16.50
2022-08-11T05:56:21.177Z,16.70
2022-08-11T05:58:54.871Z,16.80
2022-08-11T06:01:33.071Z,16.90
2022-08-11T06:04:16.244Z,17.00
2022-08-11T06:06:57.155Z,17.10
2022-08-11T06:09:47.380Z,17.20
2022-08-11T06:12:24.729Z,17.40
2022-08-11T06:15:01.869Z,17.40
2022-08-11T06:17:38.523Z,17.50
2022-08-11T06:20:12.964Z,17.60
2022-08-11T06:22:52.818Z,17.80
2022-08-11T06:25:35.675Z,17.90
2022-08-11T06:28:08.396Z,18.00
2022-08-11T06:30:43.094Z,18.10
2022-08-11T06:33:48.182Z,18.20
2022-08-11T06:36:35.719Z,18.30
2022-08-11T06:39:27.497Z,18.40
2022-08-11T06:42:08.705Z,18.60
2022-08-11T06:44:50.227Z,18.70
2022-08-11T06:47:22.526Z,18.90
2022-08-11T06:50:17.918Z,19.10
2022-08-11T06:52:53.756Z,19.10
2022-08-11T06:55:55.501Z,19.30
2022-08-11T06:58:55.875Z,19.40
2022-08-11T07:02:03.043Z,19.60
2022-08-11T07:05:04.220Z,19.70
2022-08-11T07:08:38.799Z,19.80
2022-08-11T07:12:07.390Z,19.90
2022-08-11T07:15:05.087Z,20.10
2022-08-11T07:17:50.027Z,20.10
2022-08-11T07:20:40.349Z,20.30
2022-08-11T07:23:31.283Z,20.30
2022-08-11T07:26:23.247Z,20.50
2022-08-11T07:28:56.453Z,20.50
2022-08-11T07:31:37.284Z,20.70
2022-08-11T07:34:28.120Z,20.70
2022-08-11T07:37:08.672Z,20.90
2022-08-11T07:39:44.318Z,21.00
2022-08-11T07:42:27.143Z,21.00
2022-08-11T07:45:18.887Z,21.20
2022-08-11T07:48:11.388Z,21.30
2022-08-11T07:51:05.803Z,21.30
2022-08-11T07:53:57.880Z,21.40
2022-08-11T07:56:55.431Z,21.50
2022-08-11T08:00:00.950Z,21.70
2022-08-11T08:02:54.830Z,21.90
2022-08-11T08:05:45.539Z,21.90
2022-08-11T08:08:35.778Z,22.00
2022-08-11T08:11:27.474Z,22.10
2022-08-11T08:14:18.691Z,22.20
2022-08-11T08:17:09.639Z,22.30
2022-08-11T08:19:44.436Z,22.50
2022-08-11T08:22:38.671Z,22.60
2022-08-11T08:25:11.375Z,22.60
2022-08-11T08:27:45.664Z,22.50
2022-08-11T08:30:38.026Z,22.50
2022-08-11T08:33:12.045Z,22.70
2022-08-11T08:35:55.713Z,22.90
2022-08-11T08:38:27.803Z,23.00
2022-08-11T08:41:00.454Z,23.20
2022-08-11T08:43:47.587Z,23.20
2022-08-11T08:46:29.216Z,23.30
2022-08-11T08:49:03.155Z,23.40
2022-08-11T08:52:01.854Z,23.60
2022-08-11T08:54:37.105Z,23.70
2022-08-11T08:57:11.973Z,23.80
2022-08-11T08:59:49.505Z,23.90
2022-08-11T09:02:33.960Z,24.20
2022-08-11T09:05:09.927Z,24.40
2022-08-11T09:07:43.311Z,24.80
2022-08-11T09:10:18.883Z,25.50
2022-08-11T09:12:51.559Z,26.30
2022-08-11T09:15:24.326Z,27.20
2022-08-11T09:18:05.946Z,28.10
2022-08-11T09:20:39.552Z,28.70
2022-08-11T09:24:08.890Z,29.40
2022-08-11T09:26:41.158Z,29.40
2022-08-11T09:29:13.880Z,29.90
2022-08-11T09:31:46.591Z,30.40
2022-08-11T09:34:19.010Z,31.00
2022-08-11T09:37:09.882Z,31.60
2022-08-11T09:40:01.280Z,31.50
2022-08-11T09:42:52.161Z,31.50
2022-08-11T09:45:24.286Z,31.40
2022-08-11T09:47:57.104Z,31.70
2022-08-11T09:50:29.016Z,31.50
2022-08-11T09:53:36.328Z,31.80
2022-08-11T09:55:58.627Z,32.60
2022-08-11T09:58:41.743Z,32.70
2022-08-11T10:01:27.430Z,33.20
2022-08-11T10:04:05.704Z,33.60
2022-08-11T10:06:58.486Z,33.40
2022-08-11T10:09:36.239Z,33.50
2022-08-11T10:12:24.613Z,33.40
2022-08-11T10:15:22.042Z,33.60
2022-08-11T10:18:27.676Z,33.90
2022-08-11T10:21:02.775Z,34.20
2022-08-11T10:24:00.897Z,34.00
2022-08-11T10:27:00.316Z,33.70
2022-08-11T10:29:59.757Z,33.90
2022-08-11T10:32:58.550Z,34.10
2022-08-11T10:35:33.100Z,34.70
2022-08-11T10:38:07.949Z,34.50
2022-08-11T10:40:46.220Z,34.40
2022-08-11T10:44:02.107Z,33.30
2022-08-11T10:46:30.167Z,33.10
2022-08-11T10:49:02.753Z,33.80
2022-08-11T10:51:53.733Z,34.10
2022-08-11T10:54:44.937Z,34.30
2022-08-11T10:57:37.467Z,34.90
2022-08-11T11:00:15.147Z,35.30
2022-08-11T11:03:16.780Z,34.60
2022-08-11T11:06:27.694Z,34.50
2022-08-11T11:08:52.869Z,34.70
2022-08-11T11:11:46.173Z,34.40
2022-08-11T11:14:46.379Z,34.00
2022-08-11T11:17:57.186Z,34.50
2022-08-11T11:20:46.562Z,34.30
2022-08-11T11:23:26.519Z,33.70
2022-08-11T11:26:11.033Z,34.10
2022-08-11T11:28:51.860Z,34.00
2022-08-11T11:31:26.603Z,33.70
2022-08-11T11:34:13.197Z,32.90
2022-08-11T11:36:55.145Z,32.10
2022-08-11T11:39:31.110Z,31.20
2022-08-11T11:42:06.149Z,30.30
2022-08-11T11:44:39.302Z,29.60
2022-08-11T11:47:12.916Z,29.20
2022-08-11T11:49:45.664Z,28.70
2022-08-11T11:52:21.059Z,28.20
2022-08-11T11:54:56.468Z,28.30
2022-08-11T11:57:59.285Z,28.30
2022-08-11T12:00:53.655Z,28.30
2022-08-11T12:03:26.680Z,28.30
2022-08-11T12:06:00.086Z,28.40
2022-08-11T12:08:32.635Z,28.30
2022-08-11T12:11:27.317Z,28.30
2022-08-11T12:14:04.740Z,27.80
2022-08-11T12:16:45.716Z,27.70
2022-08-11T12:19:21.448Z,27.90
2022-08-11T12:22:14.674Z,28.10
2022-08-11T12:25:05.689Z,28.10
2022-08-11T12:27:39.148Z,27.90
2022-08-11T12:30:12.734Z,27.90
2022-08-11T12:32:45.027Z,27.90
2022-08-11T12:35:17.240Z,28.00
2022-08-11T12:38:02.578Z,28.00
2022-08-11T12:41:15.806Z,28.10
2022-08-11T12:44:08.122Z,28.10
2022-08-11T12:46:44.577Z,28.10
2022-08-11T12:49:44.871Z,27.90
2022-08-11T12:52:25.430Z,27.80
2022-08-11T12:55:14.100Z,27.90
2022-08-11T12:58:06.194Z,28.10
2022-08-11T13:00:56.576Z,27.90
2022-08-11T13:03:52.365Z,28.00
2022-08-11T13:06:29.544Z,28.20
2022-08-11T13:09:01.704Z,28.00
2022-08-11T13:11:56.601Z,28.00
2022-08-11T13:14:33.040Z,28.00
2022-08-11T13:17:43.638Z,28.10
2022-08-11T13:20:20.137Z,28.10
2022-08-11T13:22:54.567Z,28.10
2022-08-11T13:25:29.702Z,28.10
2022-08-11T13:28:04.870Z,28.20
2022-08-11T13:31:12.368Z,28.10
2022-08-11T13:33:51.672Z,28.20
2022-08-11T13:36:28.418Z,28.20
2022-08-11T13:39:02.431Z,28.10
2022-08-11T13:41:40.701Z,28.00
2022-08-11T13:44:18.190Z,27.90
2022-08-11T13:46:53.394Z,27.80
2022-08-11T13:49:25.988Z,27.80
2022-08-11T13:51:59.024Z,27.90
2022-08-11T13:54:34.940Z,27.90
2022-08-11T13:57:13.476Z,27.90
2022-08-11T14:00:22.540Z,27.90
2022-08-11T14:02:58.257Z,27.70
2022-08-11T14:05:37.980Z,27.50
2022-08-11T14:08:37.017Z,27.30
2022-08-11T14:12:23.501Z,27.30
2022-08-11T14:14:23.516Z,27.60
2022-08-11T14:16:57.524Z,27.70
2022-08-11T14:19:30.799Z,27.70
2022-08-11T14:22:08.125Z,27.70
2022-08-11T14:24:42.842Z,27.50
2022-08-11T14:28:31.934Z,27.50
2022-08-11T14:30:27.853Z,27.50
2022-08-11T14:33:00.006Z,27.60
2022-08-11T14:35:31.825Z,27.60
2022-08-11T14:38:05.397Z,27.50
2022-08-11T14:40:56.499Z,27.30
2022-08-11T14:44:13.339Z,27.20
2022-08-11T14:46:59.452Z,27.10
2022-08-11T14:49:36.170Z,27.30
2022-08-11T14:52:30.530Z,27.30
2022-08-11T14:55:21.760Z,27.10
2022-08-11T14:57:57.106Z,27.00
2022-08-11T15:00:30.086Z,27.20
2022-08-11T15:03:10.373Z,27.20
2022-08-11T15:06:02.689Z,27.10
2022-08-11T15:08:56.490Z,27.20
2022-08-11T15:11:50.667Z,27.30
2022-08-11T15:14:41.496Z,27.20
2022-08-11T15:17:14.398Z,27.30
2022-08-11T15:20:05.463Z,27.40
2022-08-11T15:23:09.741Z,27.50
2022-08-11T15:25:53.115Z,27.50
2022-08-11T15:28:45.796Z,27.40
2022-08-11T15:31:37.411Z,27.20
2022-08-11T15:34:31.930Z,27.30
2022-08-11T15:37:28.052Z,27.20
2022-08-11T15:40:32.981Z,27.10
2022-08-11T15:43:30.359Z,27.00
2022-08-11T15:46:30.330Z,27.10
2022-08-11T15:49:08.623Z,27.10
2022-08-11T15:51:46.191Z,26.90
2022-08-11T15:54:23.139Z,26.70
2022-08-11T15:56:57.451Z,26.80
2022-08-11T15:59:52.260Z,26.80
2022-08-11T16:02:45.302Z,26.80
2022-08-11T16:05:45.211Z,26.70
2022-08-11T16:08:10.483Z,26.60
2022-08-11T16:10:46.627Z,26.70
2022-08-11T16:13:22.515Z,26.80
2022-08-11T16:16:14.791Z,26.80
2022-08-11T16:18:53.906Z,26.70
2022-08-11T16:21:35.271Z,26.50
2022-08-11T16:26:30.410Z,26.60
2022-08-11T16:27:13.501Z,26.60
2022-08-11T16:29:47.872Z,26.60
2022-08-11T16:32:23.336Z,26.60
2022-08-11T16:35:22.371Z,26.50
2022-08-11T16:38:13.449Z,26.50
2022-08-11T16:40:47.350Z,26.40
2022-08-11T16:43:40.620Z,26.40
2022-08-11T16:46:34.719Z,26.40
2022-08-11T16:49:10.626Z,26.40
2022-08-11T16:51:42.575Z,26.40
2022-08-11T16:54:14.863Z,26.40
2022-08-11T16:56:57.272Z,26.40
2022-08-11T16:59:38.332Z,26.40
2022-08-11T17:02:34.928Z,26.20
2022-08-11T17:05:38.328Z,26.10
2022-08-11T17:08:57.098Z,26.10
2022-08-11T17:11:59.197Z,26.00
2022-08-11T17:14:40.456Z,25.90
2022-08-11T17:17:17.028Z,25.90
2022-08-11T17:20:40.392Z,25.80
2022-08-11T17:23:03.855Z,25.80
2022-08-11T17:25:59.665Z,25.70
2022-08-11T17:28:29.225Z,25.60
2022-08-11T17:31:22.308Z,25.60
2022-08-11T17:34:15.360Z,25.60
2022-08-11T17:36:49.060Z,25.60
2022-08-11T17:39:24.126Z,25.60
2022-08-11T17:42:14.791Z,25.50
2022-08-11T17:45:06.903Z,25.50
2022-08-11T17:47:58.785Z,25.40
2022-08-11T17:50:32.230Z,25.20
2022-08-11T17:53:23.614Z,25.20
2022-08-11T17:56:34.053Z,25.20
2022-08-11T17:59:32.403Z,25.10
2022-08-11T18:02:34.416Z,25.00
2022-08-11T18:05:12.784Z,24.90
2022-08-11T18:08:05.423Z,24.70
2022-08-11T18:10:57.343Z,24.40
2022-08-11T18:13:50.330Z,24.10
2022-08-11T18:16:41.580Z,23.80
2022-08-11T18:19:32.576Z,23.60
2022-08-11T18:22:31.592Z,23.30
2022-08-11T18:25:28.453Z,23.10
2022-08-11T18:28:19.773Z,22.90
2022-08-11T18:31:13.150Z,22.70
2022-08-11T18:34:11.778Z,22.50
2022-08-11T18:37:09.339Z,22.20
2022-08-11T18:40:17.277Z,22.10
2022-08-11T18:43:09.156Z,21.90
2022-08-11T18:46:07.196Z,21.70
2022-08-11T18:49:06.134Z,21.60
2022-08-11T18:51:58.684Z,21.40
2022-08-11T18:54:53.185Z,21.30
2022-08-11T18:57:50.093Z,21.20
2022-08-11T19:00:46.354Z,21.10
2022-08-11T19:03:48.507Z,20.90
2022-08-11T19:06:42.638Z,20.80
2022-08-11T19:09:36.834Z,20.70
2022-08-11T19:12:29.980Z,20.60
2022-08-11T19:15:23.610Z,20.50
2022-08-11T19:18:15.078Z,20.40
2022-08-11T19:21:06.528Z,20.30
2022-08-11T19:24:02.470Z,20.20
2022-08-11T19:26:53.712Z,20.20
2022-08-11T19:30:11.071Z,20.20
2022-08-11T19:32:58.488Z,20.10
2022-08-11T19:35:50.406Z,20.10
2022-08-11T19:38:40.875Z,20.10
2022-08-11T19:41:56.381Z,20.00
2022-08-11T19:44:44.067Z,20.00
2022-08-11T19:47:38.747Z,19.80
2022-08-11T19:50:31.311Z,19.80
2022-08-11T19:53:24.667Z,19.70
2022-08-11T19:56:15.634Z,19.70
2022-08-11T19:59:07.191Z,19.60
2022-08-11T20:02:12.821Z,19.50
2022-08-11T20:05:04.868Z,19.40
2022-08-11T20:07:55.755Z,19.40
2022-08-11T20:10:47.916Z,19.40
2022-08-11T20:13:42.670Z,19.40
2022-08-11T20:16:37.023Z,19.40
2022-08-11T20:19:54.962Z,19.30
2022-08-11T20:22:39.066Z,19.40
2022-08-11T20:25:31.192Z,19.30
2022-08-11T20:28:23.978Z,19.30
2022-08-11T20:31:14.947Z,19.30
2022-08-11T20:34:05.616Z,19.20
2022-08-11T20:36:57.829Z,19.20
2022-08-11T20:39:50.299Z,19.20
2022-08-11T20:42:42.023Z,19.20
2022-08-11T20:45:33.697Z,19.20
2022-08-11T20:48:26.191Z,19.20
2022-08-11T20:51:18.118Z,19.10
2022-08-11T20:54:09.813Z,19.10
2022-08-11T20:57:01.937Z,19.10
2022-08-11T20:59:56.859Z,19.10
2022-08-11T21:02:50.078Z,19.00
2022-08-11T21:06:10.532Z,19.00
2022-08-11T21:08:54.957Z,19.00
2022-08-11T21:11:46.518Z,18.90
2022-08-11T21:14:40.762Z,18.90
2022-08-11T21:18:00.667Z,18.80
2022-08-11T21:20:50.151Z,18.80
2022-08-11T21:23:42.450Z,18.80
2022-08-11T21:26:35.891Z,18.70
2022-08-11T21:29:28.852Z,18.60
2022-08-11T21:32:20.444Z,18.60
2022-08-11T21:35:12.510Z,18.60
2022-08-11T21:38:07.132Z,18.60
2022-08-11T21:41:00.816Z,18.60
2022-08-11T21:43:51.699Z,18.60
2022-08-11T21:46:43.234Z,18.50
2022-08-11T21:49:34.715Z,18.50
2022-08-11T21:52:25.189Z,18.50
2022-08-11T21:55:16.638Z,18.40
2022-08-11T21:58:07.688Z,18.40
2022-08-11T22:00:58.589Z,18.40
2022-08-11T22:03:49.835Z,18.40
2022-08-11T22:06:41.454Z,18.30
2022-08-11T22:09:31.926Z,18.30
2022-08-11T22:12:41.266Z,18.30
2022-08-11T22:15:33.651Z,18.20
2022-08-11T22:18:24.013Z,18.20
2022-08-11T22:21:56.229Z,18.20
2022-08-11T22:24:26.035Z,18.20
2022-08-11T22:27:20.732Z,18.20
2022-08-11T22:30:11.223Z,18.20
2022-08-11T22:33:02.687Z,18.10
2022-08-11T22:35:54.058Z,18.10
2022-08-11T22:38:45.080Z,18.10
2022-08-11T22:41:35.797Z,18.00
2022-08-11T22:44:27.180Z,18.00
2022-08-11T22:47:19.326Z,18.00
2022-08-11T22:50:14.359Z,18.00
2022-08-11T22:53:06.784Z,17.90
2022-08-11T22:55:59.553Z,17.90
2022-08-11T22:58:50.553Z,17.80
2022-08-11T23:01:54.770Z,17.80
2022-08-11T23:04:53.017Z,17.70
2022-08-11T23:07:50.893Z,17.70
2022-08-11T23:10:43.250Z,17.60
2022-08-11T23:13:34.295Z,17.60
2022-08-11T23:16:25.471Z,17.60
2022-08-11T23:20:06.600Z,17.50
2022-08-11T23:22:37.064Z,17.50
2022-08-11T23:25:38.233Z,17.40
2022-08-11T23:28:31.817Z,17.30
2022-08-11T23:31:22.788Z,17.30
2022-08-11T23:35:02.844Z,17.30
2022-08-11T23:37:26.227Z,17.20
2022-08-11T23:40:16.614Z,17.20
2022-08-11T23:43:10.502Z,17.20
2022-08-11T23:46:00.907Z,17.20
2022-08-11T23:48:52.345Z,17.20
2022-08-11T23:51:43.886Z,17.10
2022-08-11T23:54:37.391Z,17.10
2022-08-11T23:57:28.308Z,17.10
